sensor_id;sensor_type;location;lat;lon;timestamp;temperature;humidity
2577;DHT22;1298;51.252;6.802;2023-07-20T00:00:40;17.70;99.90
2577;DHT22;1298;51.252;6.802;2023-07-20T00:03:26;17.70;99.90
2577;DHT22;1298;51.252;6.802;2023-07-20T00:06:12;17.70;99.90
2577;DHT22;1298;51.252;6.802;2023-07-20T00:08:58;17.70;99.90
2577;DHT22;1298;51.252;6.802;2023-07-20T00:11:49;17.60;99.90
2577;DHT22;1298;51.252;6.802;2023-07-20T00:14:35;17.60;99.90
2577;DHT22;1298;51.252;6.802;2023-07-20T00:17:20;17.70;99.90
2577;DHT22;1298;51.252;6.802;2023-07-20T00:20:07;17.60;99.90
2577;DHT22;1298;51.252;6.802;2023-07-20T00:22:54;17.70;99.90
2577;DHT22;1298;51.252;6.802;2023-07-20T00:25:42;17.70;99.90
2577;DHT22;1298;51.252;6.802;2023-07-20T00:28:27;17.70;99.90
2577;DHT22;1298;51.252;6.802;2023-07-20T00:31:13;17.70;99.90
2577;DHT22;1298;51.252;6.802;2023-07-20T00:33:58;17.70;99.90
2577;DHT22;1298;51.252;6.802;2023-07-20T00:36:44;17.80;99.90
2577;DHT22;1298;51.252;6.802;2023-07-20T00:39:30;17.70;99.90
2577;DHT22;1298;51.252;6.802;2023-07-20T00:42:16;17.70;99.90
2577;DHT22;1298;51.252;6.802;2023-07-20T00:45:02;17.60;99.90
2577;DHT22;1298;51.252;6.802;2023-07-20T00:47:47;17.60;99.90
2577;DHT22;1298;51.252;6.802;2023-07-20T00:50:33;17.50;99.90
2577;DHT22;1298;51.252;6.802;2023-07-20T00:53:19;17.50;99.90
2577;DHT22;1298;51.252;6.802;2023-07-20T00:56:06;17.50;99.90
2577;DHT22;1298;51.252;6.802;2023-07-20T00:58:53;17.60;99.90
2577;DHT22;1298;51.252;6.802;2023-07-20T01:01:38;17.70;99.90
2577;DHT22;1298;51.252;6.802;2023-07-20T01:04:24;17.70;99.90
2577;DHT22;1298;51.252;6.802;2023-07-20T01:07:14;17.70;99.90
2577;DHT22;1298;51.252;6.802;2023-07-20T01:10:03;17.80;99.90
2577;DHT22;1298;51.252;6.802;2023-07-20T01:12:52;17.70;99.90
2577;DHT22;1298;51.252;6.802;2023-07-20T01:15:38;17.70;99.90
2577;DHT22;1298;51.252;6.802;2023-07-20T01:18:23;17.70;99.90
2577;DHT22;1298;51.252;6.802;2023-07-20T01:21:11;17.70;99.90
2577;DHT22;1298;51.252;6.802;2023-07-20T01:24:15;17.60;99.90
2577;DHT22;1298;51.252;6.802;2023-07-20T01:27:36;17.60;99.90
2577;DHT22;1298;51.252;6.802;2023-07-20T01:30:46;17.70;99.90
2577;DHT22;1298;51.252;6.802;2023-07-20T01:33:38;17.60;99.90
2577;DHT22;1298;51.252;6.802;2023-07-20T01:36:26;17.70;99.90
2577;DHT22;1298;51.252;6.802;2023-07-20T01:39:12;17.60;99.90
2577;DHT22;1298;51.252;6.802;2023-07-20T01:41:58;17.60;99.90
2577;DHT22;1298;51.252;6.802;2023-07-20T01:44:43;17.60;99.90
2577;DHT22;1298;51.252;6.802;2023-07-20T01:47:29;17.60;99.90
2577;DHT22;1298;51.252;6.802;2023-07-20T01:50:16;17.60;99.90
2577;DHT22;1298;51.252;6.802;2023-07-20T01:53:01;17.50;99.90
2577;DHT22;1298;51.252;6.802;2023-07-20T01:55:47;17.50;99.90
2577;DHT22;1298;51.252;6.802;2023-07-20T01:58:32;17.40;99.90
2577;DHT22;1298;51.252;6.802;2023-07-20T02:01:18;17.40;99.90
2577;DHT22;1298;51.252;6.802;2023-07-20T02:04:03;17.40;99.90
2577;DHT22;1298;51.252;6.802;2023-07-20T02:06:50;17.30;99.90
2577;DHT22;1298;51.252;6.802;2023-07-20T02:09:36;17.20;99.90
2577;DHT22;1298;51.252;6.802;2023-07-20T02:12:21;17.20;99.90
2577;DHT22;1298;51.252;6.802;2023-07-20T02:15:07;17.10;99.90
2577;DHT22;1298;51.252;6.802;2023-07-20T02:17:53;17.10;99.90
2577;DHT22;1298;51.252;6.802;2023-07-20T02:20:40;17.10;99.90
2577;DHT22;1298;51.252;6.802;2023-07-20T02:23:27;17.10;99.90
2577;DHT22;1298;51.252;6.802;2023-07-20T02:26:12;17.00;99.90
2577;DHT22;1298;51.252;6.802;2023-07-20T02:28:58;16.90;99.90
2577;DHT22;1298;51.252;6.802;2023-07-20T02:31:44;16.90;99.90
2577;DHT22;1298;51.252;6.802;2023-07-20T02:34:29;17.00;99.90
2577;DHT22;1298;51.252;6.802;2023-07-20T02:37:16;16.90;99.90
2577;DHT22;1298;51.252;6.802;2023-07-20T02:40:03;16.90;99.90
2577;DHT22;1298;51.252;6.802;2023-07-20T02:42:49;16.90;99.90
2577;DHT22;1298;51.252;6.802;2023-07-20T02:45:35;16.90;99.90
2577;DHT22;1298;51.252;6.802;2023-07-20T02:48:20;16.90;99.90
2577;DHT22;1298;51.252;6.802;2023-07-20T02:51:05;16.80;99.90
2577;DHT22;1298;51.252;6.802;2023-07-20T02:53:51;16.80;99.90
2577;DHT22;1298;51.252;6.802;2023-07-20T02:56:38;16.70;99.90
2577;DHT22;1298;51.252;6.802;2023-07-20T02:59:24;16.70;99.90
2577;DHT22;1298;51.252;6.802;2023-07-20T03:02:09;16.70;99.90
2577;DHT22;1298;51.252;6.802;2023-07-20T03:04:55;16.70;99.90
2577;DHT22;1298;51.252;6.802;2023-07-20T03:07:41;16.60;99.90
2577;DHT22;1298;51.252;6.802;2023-07-20T03:10:27;16.60;99.90
2577;DHT22;1298;51.252;6.802;2023-07-20T03:13:14;16.60;99.90
2577;DHT22;1298;51.252;6.802;2023-07-20T03:16:00;16.50;99.90
2577;DHT22;1298;51.252;6.802;2023-07-20T03:18:46;16.40;99.90
2577;DHT22;1298;51.252;6.802;2023-07-20T03:21:31;16.40;99.90
2577;DHT22;1298;51.252;6.802;2023-07-20T03:24:17;16.40;99.90
2577;DHT22;1298;51.252;6.802;2023-07-20T03:27:02;16.50;99.90
2577;DHT22;1298;51.252;6.802;2023-07-20T03:29:49;16.50;99.90
2577;DHT22;1298;51.252;6.802;2023-07-20T03:32:34;16.40;99.90
2577;DHT22;1298;51.252;6.802;2023-07-20T03:35:20;16.40;99.90
2577;DHT22;1298;51.252;6.802;2023-07-20T03:38:06;16.50;99.90
2577;DHT22;1298;51.252;6.802;2023-07-20T03:40:52;16.50;99.90
2577;DHT22;1298;51.252;6.802;2023-07-20T03:43:38;16.60;99.90
2577;DHT22;1298;51.252;6.802;2023-07-20T03:46:25;16.60;99.90
2577;DHT22;1298;51.252;6.802;2023-07-20T03:49:11;16.50;99.90
2577;DHT22;1298;51.252;6.802;2023-07-20T03:51:56;16.60;99.90
2577;DHT22;1298;51.252;6.802;2023-07-20T03:54:42;16.50;99.90
2577;DHT22;1298;51.252;6.802;2023-07-20T03:57:28;16.50;99.90
2577;DHT22;1298;51.252;6.802;2023-07-20T04:00:16;16.50;99.90
2577;DHT22;1298;51.252;6.802;2023-07-20T04:03:03;16.50;99.90
2577;DHT22;1298;51.252;6.802;2023-07-20T04:05:49;16.50;99.90
2577;DHT22;1298;51.252;6.802;2023-07-20T04:08:35;16.50;99.90
2577;DHT22;1298;51.252;6.802;2023-07-20T04:11:21;16.60;99.90
2577;DHT22;1298;51.252;6.802;2023-07-20T04:14:06;16.50;99.90
2577;DHT22;1298;51.252;6.802;2023-07-20T04:16:52;16.50;99.90
2577;DHT22;1298;51.252;6.802;2023-07-20T04:19:39;16.50;99.90
2577;DHT22;1298;51.252;6.802;2023-07-20T04:22:24;16.50;99.90
2577;DHT22;1298;51.252;6.802;2023-07-20T04:25:11;16.60;99.90
2577;DHT22;1298;51.252;6.802;2023-07-20T04:27:56;16.60;99.90
2577;DHT22;1298;51.252;6.802;2023-07-20T04:30:42;16.70;99.90
2577;DHT22;1298;51.252;6.802;2023-07-20T04:33:27;16.70;99.90
2577;DHT22;1298;51.252;6.802;2023-07-20T04:36:14;16.70;99.90
2577;DHT22;1298;51.252;6.802;2023-07-20T04:39:03;16.70;99.90
2577;DHT22;1298;51.252;6.802;2023-07-20T04:41:48;16.70;99.90
2577;DHT22;1298;51.252;6.802;2023-07-20T04:44:34;16.70;99.90
2577;DHT22;1298;51.252;6.802;2023-07-20T04:47:19;16.70;99.90
2577;DHT22;1298;51.252;6.802;2023-07-20T04:50:06;16.60;99.90
2577;DHT22;1298;51.252;6.802;2023-07-20T04:52:53;16.70;99.90
2577;DHT22;1298;51.252;6.802;2023-07-20T04:55:39;16.70;99.90
2577;DHT22;1298;51.252;6.802;2023-07-20T04:58:24;16.70;99.90
2577;DHT22;1298;51.252;6.802;2023-07-20T05:01:10;16.70;99.90
2577;DHT22;1298;51.252;6.802;2023-07-20T05:03:55;16.70;99.90
2577;DHT22;1298;51.252;6.802;2023-07-20T05:06:41;16.60;99.90
2577;DHT22;1298;51.252;6.802;2023-07-20T05:09:28;16.60;99.90
2577;DHT22;1298;51.252;6.802;2023-07-20T05:12:13;16.70;99.90
2577;DHT22;1298;51.252;6.802;2023-07-20T05:14:59;16.70;99.90
2577;DHT22;1298;51.252;6.802;2023-07-20T05:17:44;16.60;99.90
2577;DHT22;1298;51.252;6.802;2023-07-20T05:20:31;16.70;99.90
2577;DHT22;1298;51.252;6.802;2023-07-20T05:23:18;16.80;99.90
2577;DHT22;1298;51.252;6.802;2023-07-20T05:26:05;16.80;99.90
2577;DHT22;1298;51.252;6.802;2023-07-20T05:28:51;16.80;99.90
2577;DHT22;1298;51.252;6.802;2023-07-20T05:31:37;16.90;99.90
2577;DHT22;1298;51.252;6.802;2023-07-20T05:34:22;16.90;99.90
2577;DHT22;1298;51.252;6.802;2023-07-20T05:37:08;17.00;99.90
2577;DHT22;1298;51.252;6.802;2023-07-20T05:39:53;17.00;99.90
2577;DHT22;1298;51.252;6.802;2023-07-20T05:42:40;16.90;99.90
2577;DHT22;1298;51.252;6.802;2023-07-20T05:45:26;16.90;99.90
2577;DHT22;1298;51.252;6.802;2023-07-20T05:48:11;16.90;99.90
2577;DHT22;1298;51.252;6.802;2023-07-20T05:50:57;16.90;99.90
2577;DHT22;1298;51.252;6.802;2023-07-20T05:53:43;17.10;99.90
2577;DHT22;1298;51.252;6.802;2023-07-20T05:56:28;17.00;99.90
2577;DHT22;1298;51.252;6.802;2023-07-20T05:59:15;17.00;99.90
2577;DHT22;1298;51.252;6.802;2023-07-20T06:02:01;17.10;99.90
2577;DHT22;1298;51.252;6.802;2023-07-20T06:04:46;17.10;99.90
2577;DHT22;1298;51.252;6.802;2023-07-20T06:07:32;17.20;99.90
2577;DHT22;1298;51.252;6.802;2023-07-20T06:10:18;17.20;99.90
2577;DHT22;1298;51.252;6.802;2023-07-20T06:13:03;17.30;99.90
2577;DHT22;1298;51.252;6.802;2023-07-20T06:15:51;17.20;99.90
2577;DHT22;1298;51.252;6.802;2023-07-20T06:18:37;17.20;99.90
2577;DHT22;1298;51.252;6.802;2023-07-20T06:21:24;17.20;99.90
2577;DHT22;1298;51.252;6.802;2023-07-20T06:24:10;17.30;99.90
2577;DHT22;1298;51.252;6.802;2023-07-20T06:26:55;17.30;99.90
2577;DHT22;1298;51.252;6.802;2023-07-20T06:29:41;17.20;99.90
2577;DHT22;1298;51.252;6.802;2023-07-20T06:32:28;17.30;99.90
2577;DHT22;1298;51.252;6.802;2023-07-20T06:35:15;17.30;99.90
2577;DHT22;1298;51.252;6.802;2023-07-20T06:38:01;17.30;99.90
2577;DHT22;1298;51.252;6.802;2023-07-20T06:40:47;17.20;99.90
2577;DHT22;1298;51.252;6.802;2023-07-20T06:43:33;17.20;99.90
2577;DHT22;1298;51.252;6.802;2023-07-20T06:46:19;17.20;99.90
2577;DHT22;1298;51.252;6.802;2023-07-20T06:49:07;17.40;99.90
2577;DHT22;1298;51.252;6.802;2023-07-20T06:51:52;17.30;99.90
2577;DHT22;1298;51.252;6.802;2023-07-20T06:54:38;17.30;99.90
2577;DHT22;1298;51.252;6.802;2023-07-20T06:57:24;17.10;99.90
2577;DHT22;1298;51.252;6.802;2023-07-20T07:00:10;17.10;99.90
2577;DHT22;1298;51.252;6.802;2023-07-20T07:02:56;17.00;99.90
2577;DHT22;1298;51.252;6.802;2023-07-20T07:05:43;17.10;99.90
2577;DHT22;1298;51.252;6.802;2023-07-20T07:08:29;17.00;99.90
2577;DHT22;1298;51.252;6.802;2023-07-20T07:11:14;16.90;99.90
2577;DHT22;1298;51.252;6.802;2023-07-20T07:14:00;17.00;99.90
2577;DHT22;1298;51.252;6.802;2023-07-20T07:16:45;17.10;99.90
2577;DHT22;1298;51.252;6.802;2023-07-20T07:19:31;17.10;99.90
2577;DHT22;1298;51.252;6.802;2023-07-20T07:22:18;17.20;99.90
2577;DHT22;1298;51.252;6.802;2023-07-20T07:25:05;17.40;99.90
2577;DHT22;1298;51.252;6.802;2023-07-20T07:27:53;17.50;99.90
2577;DHT22;1298;51.252;6.802;2023-07-20T07:30:39;17.80;99.90
2577;DHT22;1298;51.252;6.802;2023-07-20T07:33:24;18.10;99.90
2577;DHT22;1298;51.252;6.802;2023-07-20T07:36:10;18.40;99.90
2577;DHT22;1298;51.252;6.802;2023-07-20T07:38:57;18.50;99.90
2577;DHT22;1298;51.252;6.802;2023-07-20T07:41:43;18.50;99.90
2577;DHT22;1298;51.252;6.802;2023-07-20T07:44:28;18.20;99.90
2577;DHT22;1298;51.252;6.802;2023-07-20T07:47:14;18.10;99.90
2577;DHT22;1298;51.252;6.802;2023-07-20T07:49:59;18.00;99.90
2577;DHT22;1298;51.252;6.802;2023-07-20T07:52:45;18.00;99.90
2577;DHT22;1298;51.252;6.802;2023-07-20T07:55:32;18.10;99.90
2577;DHT22;1298;51.252;6.802;2023-07-20T07:58:17;18.20;99.90
2577;DHT22;1298;51.252;6.802;2023-07-20T08:01:03;18.40;99.90
2577;DHT22;1298;51.252;6.802;2023-07-20T08:03:49;18.70;99.90
2577;DHT22;1298;51.252;6.802;2023-07-20T08:06:35;19.10;99.90
2577;DHT22;1298;51.252;6.802;2023-07-20T08:09:20;19.30;99.90
2577;DHT22;1298;51.252;6.802;2023-07-20T08:12:08;19.60;99.90
2577;DHT22;1298;51.252;6.802;2023-07-20T08:14:53;19.60;99.90
2577;DHT22;1298;51.252;6.802;2023-07-20T08:17:39;19.70;99.90
2577;DHT22;1298;51.252;6.802;2023-07-20T08:20:25;19.90;99.90
2577;DHT22;1298;51.252;6.802;2023-07-20T08:23:11;19.70;99.90
2577;DHT22;1298;51.252;6.802;2023-07-20T08:25:57;19.70;99.90
2577;DHT22;1298;51.252;6.802;2023-07-20T08:28:44;19.50;99.90
2577;DHT22;1298;51.252;6.802;2023-07-20T08:31:32;19.30;99.90
2577;DHT22;1298;51.252;6.802;2023-07-20T08:34:17;19.30;99.90
2577;DHT22;1298;51.252;6.802;2023-07-20T08:37:03;19.20;99.90
2577;DHT22;1298;51.252;6.802;2023-07-20T08:39:49;19.00;99.90
2577;DHT22;1298;51.252;6.802;2023-07-20T08:42:34;18.80;99.90
2577;DHT22;1298;51.252;6.802;2023-07-20T08:45:22;18.70;99.90
2577;DHT22;1298;51.252;6.802;2023-07-20T08:48:12;18.80;99.90
2577;DHT22;1298;51.252;6.802;2023-07-20T08:50:58;19.00;99.90
2577;DHT22;1298;51.252;6.802;2023-07-20T08:53:45;19.20;99.90
2577;DHT22;1298;51.252;6.802;2023-07-20T08:56:34;19.40;99.90
2577;DHT22;1298;51.252;6.802;2023-07-20T08:59:20;19.70;99.90
2577;DHT22;1298;51.252;6.802;2023-07-20T09:02:12;19.80;99.90
2577;DHT22;1298;51.252;6.802;2023-07-20T09:05:01;19.90;99.90
2577;DHT22;1298;51.252;6.802;2023-07-20T09:07:47;20.10;99.90
2577;DHT22;1298;51.252;6.802;2023-07-20T09:10:32;20.30;99.90
2577;DHT22;1298;51.252;6.802;2023-07-20T09:13:18;20.30;99.90
2577;DHT22;1298;51.252;6.802;2023-07-20T09:16:04;20.30;99.90
2577;DHT22;1298;51.252;6.802;2023-07-20T09:18:51;20.70;99.90
2577;DHT22;1298;51.252;6.802;2023-07-20T09:21:36;21.00;99.90
2577;DHT22;1298;51.252;6.802;2023-07-20T09:24:22;21.10;99.90
2577;DHT22;1298;51.252;6.802;2023-07-20T09:27:08;21.00;99.90
2577;DHT22;1298;51.252;6.802;2023-07-20T09:29:56;20.90;99.90
2577;DHT22;1298;51.252;6.802;2023-07-20T09:32:43;20.50;99.90
2577;DHT22;1298;51.252;6.802;2023-07-20T09:35:30;20.40;99.90
2577;DHT22;1298;51.252;6.802;2023-07-20T09:38:15;20.50;99.90
2577;DHT22;1298;51.252;6.802;2023-07-20T09:41:01;20.50;99.90
2577;DHT22;1298;51.252;6.802;2023-07-20T09:43:46;20.30;99.90
2577;DHT22;1298;51.252;6.802;2023-07-20T09:46:41;20.40;99.90
2577;DHT22;1298;51.252;6.802;2023-07-20T09:49:26;20.50;99.90
2577;DHT22;1298;51.252;6.802;2023-07-20T09:52:14;20.90;99.90
2577;DHT22;1298;51.252;6.802;2023-07-20T09:55:01;21.00;99.90
2577;DHT22;1298;51.252;6.802;2023-07-20T09:57:47;21.00;99.90
2577;DHT22;1298;51.252;6.802;2023-07-20T10:00:34;21.00;99.90
2577;DHT22;1298;51.252;6.802;2023-07-20T10:03:22;20.80;99.90
2577;DHT22;1298;51.252;6.802;2023-07-20T10:06:10;20.80;99.90
2577;DHT22;1298;51.252;6.802;2023-07-20T10:09:02;21.00;99.90
2577;DHT22;1298;51.252;6.802;2023-07-20T10:11:50;21.10;99.90
2577;DHT22;1298;51.252;6.802;2023-07-20T10:14:40;21.30;99.90
2577;DHT22;1298;51.252;6.802;2023-07-20T10:17:26;21.70;99.90
2577;DHT22;1298;51.252;6.802;2023-07-20T10:20:11;21.90;99.90
2577;DHT22;1298;51.252;6.802;2023-07-20T10:22:58;22.10;99.90
2577;DHT22;1298;51.252;6.802;2023-07-20T10:25:46;22.00;99.90
2577;DHT22;1298;51.252;6.802;2023-07-20T10:28:32;21.70;99.90
2577;DHT22;1298;51.252;6.802;2023-07-20T10:31:18;21.60;99.90
2577;DHT22;1298;51.252;6.802;2023-07-20T10:34:03;21.50;99.90
2577;DHT22;1298;51.252;6.802;2023-07-20T10:36:49;21.50;99.90
2577;DHT22;1298;51.252;6.802;2023-07-20T10:39:36;21.60;99.90
2577;DHT22;1298;51.252;6.802;2023-07-20T10:42:23;21.70;99.90
2577;DHT22;1298;51.252;6.802;2023-07-20T10:45:09;22.00;99.90
2577;DHT22;1298;51.252;6.802;2023-07-20T10:47:55;22.20;99.90
2577;DHT22;1298;51.252;6.802;2023-07-20T10:50:41;22.30;99.90
2577;DHT22;1298;51.252;6.802;2023-07-20T10:53:27;22.20;99.90
2577;DHT22;1298;51.252;6.802;2023-07-20T10:56:14;21.90;99.90
2577;DHT22;1298;51.252;6.802;2023-07-20T10:59:01;21.70;99.90
2577;DHT22;1298;51.252;6.802;2023-07-20T11:02:05;21.90;99.90
2577;DHT22;1298;51.252;6.802;2023-07-20T11:04:51;22.20;99.90
2577;DHT22;1298;51.252;6.802;2023-07-20T11:07:37;22.60;99.90
2577;DHT22;1298;51.252;6.802;2023-07-20T11:10:23;22.70;99.90
2577;DHT22;1298;51.252;6.802;2023-07-20T11:13:26;22.60;99.90
2577;DHT22;1298;51.252;6.802;2023-07-20T11:16:17;22.60;99.90
2577;DHT22;1298;51.252;6.802;2023-07-20T11:19:02;22.70;99.90
2577;DHT22;1298;51.252;6.802;2023-07-20T11:21:51;22.80;99.90
2577;DHT22;1298;51.252;6.802;2023-07-20T11:24:39;22.80;99.90
2577;DHT22;1298;51.252;6.802;2023-07-20T11:27:24;23.00;99.90
2577;DHT22;1298;51.252;6.802;2023-07-20T11:30:15;23.20;99.90
2577;DHT22;1298;51.252;6.802;2023-07-20T11:33:02;23.40;99.90
2577;DHT22;1298;51.252;6.802;2023-07-20T11:35:49;23.60;99.90
2577;DHT22;1298;51.252;6.802;2023-07-20T11:38:35;23.70;99.90
2577;DHT22;1298;51.252;6.802;2023-07-20T11:41:21;23.60;99.90
2577;DHT22;1298;51.252;6.802;2023-07-20T11:44:06;23.50;99.90
2577;DHT22;1298;51.252;6.802;2023-07-20T11:47:00;23.50;99.90
2577;DHT22;1298;51.252;6.802;2023-07-20T11:49:49;23.30;99.90
2577;DHT22;1298;51.252;6.802;2023-07-20T11:52:38;23.40;99.90
2577;DHT22;1298;51.252;6.802;2023-07-20T11:55:24;23.40;99.90
2577;DHT22;1298;51.252;6.802;2023-07-20T11:58:09;23.80;99.90
2577;DHT22;1298;51.252;6.802;2023-07-20T12:00:56;24.20;99.90
2577;DHT22;1298;51.252;6.802;2023-07-20T12:03:42;24.30;99.90
2577;DHT22;1298;51.252;6.802;2023-07-20T12:06:29;23.90;99.90
2577;DHT22;1298;51.252;6.802;2023-07-20T12:09:16;23.10;99.90
2577;DHT22;1298;51.252;6.802;2023-07-20T12:12:09;22.60;99.90
2577;DHT22;1298;51.252;6.802;2023-07-20T12:14:55;22.70;99.90
2577;DHT22;1298;51.252;6.802;2023-07-20T12:17:42;22.70;99.90
2577;DHT22;1298;51.252;6.802;2023-07-20T12:20:29;22.90;99.90
2577;DHT22;1298;51.252;6.802;2023-07-20T12:23:16;22.90;99.90
2577;DHT22;1298;51.252;6.802;2023-07-20T12:26:02;23.10;99.90
2577;DHT22;1298;51.252;6.802;2023-07-20T12:28:49;23.20;99.90
2577;DHT22;1298;51.252;6.802;2023-07-20T12:31:36;23.40;99.90
2577;DHT22;1298;51.252;6.802;2023-07-20T12:34:22;23.50;99.90
2577;DHT22;1298;51.252;6.802;2023-07-20T12:37:07;23.40;99.90
2577;DHT22;1298;51.252;6.802;2023-07-20T12:39:54;23.40;99.90
2577;DHT22;1298;51.252;6.802;2023-07-20T12:42:40;23.60;99.90
2577;DHT22;1298;51.252;6.802;2023-07-20T12:45:25;23.70;99.90
2577;DHT22;1298;51.252;6.802;2023-07-20T12:48:11;23.80;99.90
2577;DHT22;1298;51.252;6.802;2023-07-20T12:50:56;23.70;99.90
2577;DHT22;1298;51.252;6.802;2023-07-20T12:53:42;23.70;99.90
2577;DHT22;1298;51.252;6.802;2023-07-20T12:56:29;23.60;99.90
2577;DHT22;1298;51.252;6.802;2023-07-20T12:59:14;23.40;99.90
2577;DHT22;1298;51.252;6.802;2023-07-20T13:02:00;23.20;99.90
2577;DHT22;1298;51.252;6.802;2023-07-20T13:04:45;23.10;99.90
2577;DHT22;1298;51.252;6.802;2023-07-20T13:07:32;23.00;99.90
2577;DHT22;1298;51.252;6.802;2023-07-20T13:10:17;22.90;99.90
2577;DHT22;1298;51.252;6.802;2023-07-20T13:13:04;22.60;99.90
2577;DHT22;1298;51.252;6.802;2023-07-20T13:15:50;22.40;99.90
2577;DHT22;1298;51.252;6.802;2023-07-20T13:18:35;22.30;99.90
2577;DHT22;1298;51.252;6.802;2023-07-20T13:21:21;22.40;99.90
2577;DHT22;1298;51.252;6.802;2023-07-20T13:24:08;22.60;99.90
2577;DHT22;1298;51.252;6.802;2023-07-20T13:26:54;23.50;99.90
2577;DHT22;1298;51.252;6.802;2023-07-20T13:29:41;24.70;99.90
2577;DHT22;1298;51.252;6.802;2023-07-20T13:32:27;24.60;99.90
2577;DHT22;1298;51.252;6.802;2023-07-20T13:35:12;24.10;99.90
2577;DHT22;1298;51.252;6.802;2023-07-20T13:37:58;23.90;99.90
2577;DHT22;1298;51.252;6.802;2023-07-20T13:40:44;23.70;99.90
2577;DHT22;1298;51.252;6.802;2023-07-20T13:43:29;23.80;99.90
2577;DHT22;1298;51.252;6.802;2023-07-20T13:46:16;23.80;99.90
2577;DHT22;1298;51.252;6.802;2023-07-20T13:49:02;24.00;99.90
2577;DHT22;1298;51.252;6.802;2023-07-20T13:51:47;24.10;99.90
2577;DHT22;1298;51.252;6.802;2023-07-20T13:54:33;23.90;99.90
2577;DHT22;1298;51.252;6.802;2023-07-20T13:57:18;23.90;99.90
2577;DHT22;1298;51.252;6.802;2023-07-20T14:00:05;23.80;99.90
2577;DHT22;1298;51.252;6.802;2023-07-20T14:02:54;23.70;99.90
2577;DHT22;1298;51.252;6.802;2023-07-20T14:05:40;23.50;99.90
2577;DHT22;1298;51.252;6.802;2023-07-20T14:08:25;23.20;99.90
2577;DHT22;1298;51.252;6.802;2023-07-20T14:11:11;22.90;99.90
2577;DHT22;1298;51.252;6.802;2023-07-20T14:13:56;23.10;99.90
2577;DHT22;1298;51.252;6.802;2023-07-20T14:16:42;23.00;99.90
2577;DHT22;1298;51.252;6.802;2023-07-20T14:19:29;23.10;99.90
2577;DHT22;1298;51.252;6.802;2023-07-20T14:22:14;23.40;99.90
2577;DHT22;1298;51.252;6.802;2023-07-20T14:25:00;23.70;99.90
2577;DHT22;1298;51.252;6.802;2023-07-20T14:27:45;23.90;99.90
2577;DHT22;1298;51.252;6.802;2023-07-20T14:30:31;24.20;99.90
2577;DHT22;1298;51.252;6.802;2023-07-20T14:33:16;24.40;99.90
2577;DHT22;1298;51.252;6.802;2023-07-20T14:36:04;25.10;99.90
2577;DHT22;1298;51.252;6.802;2023-07-20T14:38:49;25.70;99.90
2577;DHT22;1298;51.252;6.802;2023-07-20T14:41:34;25.80;99.90
2577;DHT22;1298;51.252;6.802;2023-07-20T14:44:20;25.60;99.90
2577;DHT22;1298;51.252;6.802;2023-07-20T14:47:06;25.50;99.90
2577;DHT22;1298;51.252;6.802;2023-07-20T14:49:52;25.80;99.90
2577;DHT22;1298;51.252;6.802;2023-07-20T14:52:39;25.60;99.90
2577;DHT22;1298;51.252;6.802;2023-07-20T14:55:25;25.60;99.90
2577;DHT22;1298;51.252;6.802;2023-07-20T14:58:10;25.30;99.90
2577;DHT22;1298;51.252;6.802;2023-07-20T15:00:56;25.10;99.90
2577;DHT22;1298;51.252;6.802;2023-07-20T15:03:42;25.10;99.90
2577;DHT22;1298;51.252;6.802;2023-07-20T15:06:27;25.00;99.90
2577;DHT22;1298;51.252;6.802;2023-07-20T15:09:15;25.30;99.90
2577;DHT22;1298;51.252;6.802;2023-07-20T15:12:01;26.10;99.90
2577;DHT22;1298;51.252;6.802;2023-07-20T15:15:02;27.10;99.90
2577;DHT22;1298;51.252;6.802;2023-07-20T15:17:48;27.10;99.90
2577;DHT22;1298;51.252;6.802;2023-07-20T15:20:35;26.70;99.90
2577;DHT22;1298;51.252;6.802;2023-07-20T15:23:20;26.70;99.90
2577;DHT22;1298;51.252;6.802;2023-07-20T15:26:07;26.90;99.90
2577;DHT22;1298;51.252;6.802;2023-07-20T15:28:53;27.10;99.90
2577;DHT22;1298;51.252;6.802;2023-07-20T15:31:39;26.40;99.90
2577;DHT22;1298;51.252;6.802;2023-07-20T15:34:24;26.20;99.90
2577;DHT22;1298;51.252;6.802;2023-07-20T15:37:10;26.80;99.90
2577;DHT22;1298;51.252;6.802;2023-07-20T15:39:56;27.80;99.90
2577;DHT22;1298;51.252;6.802;2023-07-20T15:42:46;28.70;99.90
2577;DHT22;1298;51.252;6.802;2023-07-20T15:45:33;28.70;99.90
2577;DHT22;1298;51.252;6.802;2023-07-20T15:48:18;29.60;99.90
2577;DHT22;1298;51.252;6.802;2023-07-20T15:51:05;29.90;99.90
2577;DHT22;1298;51.252;6.802;2023-07-20T15:53:51;29.90;99.90
2577;DHT22;1298;51.252;6.802;2023-07-20T15:56:37;29.70;99.90
2577;DHT22;1298;51.252;6.802;2023-07-20T15:59:28;30.40;99.90
2577;DHT22;1298;51.252;6.802;2023-07-20T16:02:14;30.90;99.90
2577;DHT22;1298;51.252;6.802;2023-07-20T16:05:00;30.90;99.90
2577;DHT22;1298;51.252;6.802;2023-07-20T16:07:45;30.90;99.90
2577;DHT22;1298;51.252;6.802;2023-07-20T16:10:32;30.90;99.90
2577;DHT22;1298;51.252;6.802;2023-07-20T16:13:17;30.10;99.90
2577;DHT22;1298;51.252;6.802;2023-07-20T16:16:04;30.40;99.90
2577;DHT22;1298;51.252;6.802;2023-07-20T16:18:50;30.60;99.90
2577;DHT22;1298;51.252;6.802;2023-07-20T16:21:38;31.20;99.90
2577;DHT22;1298;51.252;6.802;2023-07-20T16:24:23;32.00;99.90
2577;DHT22;1298;51.252;6.802;2023-07-20T16:27:09;32.10;99.90
2577;DHT22;1298;51.252;6.802;2023-07-20T16:29:54;31.90;99.90
2577;DHT22;1298;51.252;6.802;2023-07-20T16:32:42;30.60;99.90
2577;DHT22;1298;51.252;6.802;2023-07-20T16:35:27;29.80;99.90
2577;DHT22;1298;51.252;6.802;2023-07-20T16:38:14;29.30;99.90
2577;DHT22;1298;51.252;6.802;2023-07-20T16:40:59;28.60;99.90
2577;DHT22;1298;51.252;6.802;2023-07-20T16:43:45;28.10;99.90
2577;DHT22;1298;51.252;6.802;2023-07-20T16:46:30;27.70;99.90
2577;DHT22;1298;51.252;6.802;2023-07-20T16:49:19;27.00;99.90
2577;DHT22;1298;51.252;6.802;2023-07-20T16:52:05;25.90;99.90
2577;DHT22;1298;51.252;6.802;2023-07-20T16:54:50;25.50;99.90
2577;DHT22;1298;51.252;6.802;2023-07-20T16:57:36;25.10;99.90
2577;DHT22;1298;51.252;6.802;2023-07-20T17:00:22;24.60;99.90
2577;DHT22;1298;51.252;6.802;2023-07-20T17:03:08;24.60;99.90
2577;DHT22;1298;51.252;6.802;2023-07-20T17:05:54;24.70;99.90
2577;DHT22;1298;51.252;6.802;2023-07-20T17:08:40;24.70;99.90
2577;DHT22;1298;51.252;6.802;2023-07-20T17:11:25;24.70;99.90
2577;DHT22;1298;51.252;6.802;2023-07-20T17:14:11;24.40;99.90
2577;DHT22;1298;51.252;6.802;2023-07-20T17:16:56;24.30;99.90
2577;DHT22;1298;51.252;6.802;2023-07-20T17:19:42;24.40;99.90
2577;DHT22;1298;51.252;6.802;2023-07-20T17:22:29;24.40;99.90
2577;DHT22;1298;51.252;6.802;2023-07-20T17:25:15;24.50;99.90
2577;DHT22;1298;51.252;6.802;2023-07-20T17:28:00;24.40;99.90
2577;DHT22;1298;51.252;6.802;2023-07-20T17:30:46;24.50;99.90
2577;DHT22;1298;51.252;6.802;2023-07-20T17:33:31;24.60;99.90
2577;DHT22;1298;51.252;6.802;2023-07-20T17:36:17;24.50;99.90
2577;DHT22;1298;51.252;6.802;2023-07-20T17:39:04;24.20;99.90
2577;DHT22;1298;51.252;6.802;2023-07-20T17:41:49;24.00;99.90
2577;DHT22;1298;51.252;6.802;2023-07-20T17:44:35;23.90;99.90
2577;DHT22;1298;51.252;6.802;2023-07-20T17:47:20;23.80;99.90
2577;DHT22;1298;51.252;6.802;2023-07-20T17:50:07;23.80;99.90
2577;DHT22;1298;51.252;6.802;2023-07-20T17:52:54;24.00;99.90
2577;DHT22;1298;51.252;6.802;2023-07-20T17:55:43;24.00;99.90
2577;DHT22;1298;51.252;6.802;2023-07-20T17:58:29;24.40;99.90
2577;DHT22;1298;51.252;6.802;2023-07-20T18:01:14;25.30;99.90
2577;DHT22;1298;51.252;6.802;2023-07-20T18:04:00;25.90;99.90
2577;DHT22;1298;51.252;6.802;2023-07-20T18:06:45;25.70;99.90